sensor_id;sensor_type;location;lat;lon;timestamp;P1;durP1;ratioP1;P2;durP2;ratioP2
50757;SDS011;36732;47.980;11.652;2023-03-14T00:00:57;0.93;;;0.40;;
50757;SDS011;36732;47.980;11.652;2023-03-14T00:03:22;1.33;;;0.47;;
50757;SDS011;36732;47.980;11.652;2023-03-14T00:05:48;0.47;;;0.40;;
50757;SDS011;36732;47.980;11.652;2023-03-14T00:08:14;0.57;;;0.40;;
50757;SDS011;36732;47.980;11.652;2023-03-14T00:10:40;2.13;;;0.50;;
50757;SDS011;36732;47.980;11.652;2023-03-14T00:13:06;1.55;;;0.80;;
50757;SDS011;36732;47.980;11.652;2023-03-14T00:15:32;1.30;;;0.60;;
50757;SDS011;36732;47.980;11.652;2023-03-14T00:17:59;0.45;;;0.40;;
50757;SDS011;36732;47.980;11.652;2023-03-14T00:20:25;0.40;;;0.40;;
50757;SDS011;36732;47.980;11.652;2023-03-14T00:22:51;0.38;;;0.20;;
50757;SDS011;36732;47.980;11.652;2023-03-14T00:25:17;0.43;;;0.28;;
50757;SDS011;36732;47.980;11.652;2023-03-14T00:27:42;1.58;;;0.30;;
50757;SDS011;36732;47.980;11.652;2023-03-14T00:30:08;0.40;;;0.40;;
50757;SDS011;36732;47.980;11.652;2023-03-14T00:32:35;0.57;;;0.30;;
50757;SDS011;36732;47.980;11.652;2023-03-14T00:35:01;0.30;;;0.30;;
50757;SDS011;36732;47.980;11.652;2023-03-14T00:37:28;0.30;;;0.30;;
50757;SDS011;36732;47.980;11.652;2023-03-14T00:39:54;1.10;;;0.38;;
50757;SDS011;36732;47.980;11.652;2023-03-14T00:42:20;0.30;;;0.30;;
50757;SDS011;36732;47.980;11.652;2023-03-14T00:44:45;0.30;;;0.30;;
50757;SDS011;36732;47.980;11.652;2023-03-14T00:47:11;0.20;;;0.20;;
50757;SDS011;36732;47.980;11.652;2023-03-14T00:49:37;0.20;;;0.20;;
50757;SDS011;36732;47.980;11.652;2023-03-14T00:52:03;0.20;;;0.20;;
50757;SDS011;36732;47.980;11.652;2023-03-14T00:54:28;0.38;;;0.38;;
50757;SDS011;36732;47.980;11.652;2023-03-14T00:56:55;0.35;;;0.20;;
50757;SDS011;36732;47.980;11.652;2023-03-14T00:59:21;0.30;;;0.30;;
50757;SDS011;36732;47.980;11.652;2023-03-14T01:01:46;0.50;;;0.30;;
50757;SDS011;36732;47.980;11.652;2023-03-14T01:04:12;0.30;;;0.30;;
50757;SDS011;36732;47.980;11.652;2023-03-14T01:06:38;0.28;;;0.20;;
50757;SDS011;36732;47.980;11.652;2023-03-14T01:09:04;0.50;;;0.30;;
50757;SDS011;36732;47.980;11.652;2023-03-14T01:11:32;0.93;;;0.30;;
50757;SDS011;36732;47.980;11.652;2023-03-14T01:13:59;0.43;;;0.20;;
50757;SDS011;36732;47.980;11.652;2023-03-14T01:16:27;0.30;;;0.22;;
50757;SDS011;36732;47.980;11.652;2023-03-14T01:18:55;0.40;;;0.25;;
50757;SDS011;36732;47.980;11.652;2023-03-14T01:21:22;0.20;;;0.20;;
50757;SDS011;36732;47.980;11.652;2023-03-14T01:23:54;0.20;;;0.20;;
50757;SDS011;36732;47.980;11.652;2023-03-14T01:26:23;0.30;;;0.28;;
50757;SDS011;36732;47.980;11.652;2023-03-14T01:28:52;0.60;;;0.20;;
50757;SDS011;36732;47.980;11.652;2023-03-14T01:31:19;0.77;;;0.25;;
50757;SDS011;36732;47.980;11.652;2023-03-14T01:33:45;0.20;;;0.20;;
50757;SDS011;36732;47.980;11.652;2023-03-14T01:36:11;0.47;;;0.20;;
50757;SDS011;36732;47.980;11.652;2023-03-14T01:38:38;1.42;;;0.30;;
50757;SDS011;36732;47.980;11.652;2023-03-14T01:41:05;0.85;;;0.32;;
50757;SDS011;36732;47.980;11.652;2023-03-14T01:43:32;0.30;;;0.20;;
50757;SDS011;36732;47.980;11.652;2023-03-14T01:48:37;0.30;;;0.30;;
50757;SDS011;36732;47.980;11.652;2023-03-14T01:51:25;0.50;;;0.40;;
50757;SDS011;36732;47.980;11.652;2023-03-14T01:54:06;0.77;;;0.30;;
50757;SDS011;36732;47.980;11.652;2023-03-14T01:56:53;1.58;;;0.20;;
50757;SDS011;36732;47.980;11.652;2023-03-14T01:59:36;0.55;;;0.20;;
50757;SDS011;36732;47.980;11.652;2023-03-14T02:02:04;0.35;;;0.10;;
50757;SDS011;36732;47.980;11.652;2023-03-14T02:04:35;0.45;;;0.40;;
50757;SDS011;36732;47.980;11.652;2023-03-14T02:07:17;0.40;;;0.38;;
50757;SDS011;36732;47.980;11.652;2023-03-14T02:09:48;0.50;;;0.40;;
50757;SDS011;36732;47.980;11.652;2023-03-14T02:12:15;0.50;;;0.30;;
50757;SDS011;36732;47.980;11.652;2023-03-14T02:14:43;0.57;;;0.50;;
50757;SDS011;36732;47.980;11.652;2023-03-14T02:17:13;4.57;;;0.50;;
50757;SDS011;36732;47.980;11.652;2023-03-14T02:22:42;0.50;;;0.20;;
50757;SDS011;36732;47.980;11.652;2023-03-14T02:27:51;0.80;;;0.20;;
50757;SDS011;36732;47.980;11.652;2023-03-14T02:32:52;0.57;;;0.40;;
50757;SDS011;36732;47.980;11.652;2023-03-14T02:35:27;0.65;;;0.30;;
50757;SDS011;36732;47.980;11.652;2023-03-14T02:40:53;0.85;;;0.63;;
50757;SDS011;36732;47.980;11.652;2023-03-14T02:43:19;1.63;;;0.50;;
50757;SDS011;36732;47.980;11.652;2023-03-14T02:45:46;0.30;;;0.30;;
50757;SDS011;36732;47.980;11.652;2023-03-14T02:48:15;1.75;;;0.30;;
50757;SDS011;36732;47.980;11.652;2023-03-14T02:50:50;0.60;;;0.30;;
50757;SDS011;36732;47.980;11.652;2023-03-14T02:53:22;0.20;;;0.20;;
50757;SDS011;36732;47.980;11.652;2023-03-14T02:55:52;1.40;;;0.20;;
50757;SDS011;36732;47.980;11.652;2023-03-14T02:58:19;0.40;;;0.30;;
50757;SDS011;36732;47.980;11.652;2023-03-14T03:00:45;1.05;;;0.60;;
50757;SDS011;36732;47.980;11.652;2023-03-14T03:03:11;0.20;;;0.20;;
50757;SDS011;36732;47.980;11.652;2023-03-14T03:05:37;0.10;;;0.10;;
50757;SDS011;36732;47.980;11.652;2023-03-14T03:08:03;0.20;;;0.20;;
50757;SDS011;36732;47.980;11.652;2023-03-14T03:10:30;0.28;;;0.20;;
50757;SDS011;36732;47.980;11.652;2023-03-14T03:12:56;0.30;;;0.20;;
50757;SDS011;36732;47.980;11.652;2023-03-14T03:15:22;1.48;;;0.17;;
50757;SDS011;36732;47.980;11.652;2023-03-14T03:17:48;0.17;;;0.17;;
50757;SDS011;36732;47.980;11.652;2023-03-14T03:20:14;0.20;;;0.20;;
50757;SDS011;36732;47.980;11.652;2023-03-14T03:22:40;0.30;;;0.17;;
50757;SDS011;36732;47.980;11.652;2023-03-14T03:25:06;0.22;;;0.20;;
50757;SDS011;36732;47.980;11.652;2023-03-14T03:27:34;0.10;;;0.10;;
50757;SDS011;36732;47.980;11.652;2023-03-14T03:30:02;1.55;;;0.20;;
50757;SDS011;36732;47.980;11.652;2023-03-14T03:32:30;1.02;;;0.20;;
50757;SDS011;36732;47.980;11.652;2023-03-14T03:34:57;0.10;;;0.10;;
50757;SDS011;36732;47.980;11.652;2023-03-14T03:37:22;0.15;;;0.10;;
50757;SDS011;36732;47.980;11.652;2023-03-14T03:39:52;0.32;;;0.10;;
50757;SDS011;36732;47.980;11.652;2023-03-14T03:42:18;1.33;;;0.17;;
50757;SDS011;36732;47.980;11.652;2023-03-14T03:44:44;0.25;;;0.05;;
50757;SDS011;36732;47.980;11.652;2023-03-14T03:47:10;0.75;;;0.25;;
50757;SDS011;36732;47.980;11.652;2023-03-14T03:49:36;0.22;;;0.10;;
50757;SDS011;36732;47.980;11.652;2023-03-14T03:52:01;0.57;;;0.20;;
50757;SDS011;36732;47.980;11.652;2023-03-14T03:54:27;0.10;;;0.10;;
50757;SDS011;36732;47.980;11.652;2023-03-14T03:56:54;0.10;;;0.10;;
50757;SDS011;36732;47.980;11.652;2023-03-14T03:59:20;0.10;;;0.10;;
50757;SDS011;36732;47.980;11.652;2023-03-14T04:01:46;0.20;;;0.20;;
50757;SDS011;36732;47.980;11.652;2023-03-14T04:04:12;0.10;;;0.10;;
50757;SDS011;36732;47.980;11.652;2023-03-14T04:06:38;0.10;;;0.10;;
50757;SDS011;36732;47.980;11.652;2023-03-14T04:09:05;0.10;;;0.10;;
50757;SDS011;36732;47.980;11.652;2023-03-14T04:11:30;0.20;;;0.20;;
50757;SDS011;36732;47.980;11.652;2023-03-14T04:13:56;1.52;;;0.68;;
50757;SDS011;36732;47.980;11.652;2023-03-14T04:16:23;0.10;;;0.10;;
50757;SDS011;36732;47.980;11.652;2023-03-14T04:18:50;0.20;;;0.20;;
50757;SDS011;36732;47.980;11.652;2023-03-14T04:21:16;0.20;;;0.20;;
50757;SDS011;36732;47.980;11.652;2023-03-14T04:23:42;0.10;;;0.10;;
50757;SDS011;36732;47.980;11.652;2023-03-14T04:26:08;0.10;;;0.10;;
50757;SDS011;36732;47.980;11.652;2023-03-14T04:28:34;0.30;;;0.20;;
50757;SDS011;36732;47.980;11.652;2023-03-14T04:31:08;0.10;;;0.10;;
50757;SDS011;36732;47.980;11.652;2023-03-14T04:33:35;0.10;;;0.10;;
50757;SDS011;36732;47.980;11.652;2023-03-14T04:36:02;0.70;;;0.40;;
50757;SDS011;36732;47.980;11.652;2023-03-14T04:38:30;0.17;;;0.10;;
50757;SDS011;36732;47.980;11.652;2023-03-14T04:40:56;0.40;;;0.20;;
50757;SDS011;36732;47.980;11.652;2023-03-14T04:43:22;0.77;;;0.35;;
50757;SDS011;36732;47.980;11.652;2023-03-14T04:45:47;0.20;;;0.20;;
50757;SDS011;36732;47.980;11.652;2023-03-14T04:48:13;0.10;;;0.10;;
50757;SDS011;36732;47.980;11.652;2023-03-14T04:50:39;0.10;;;0.10;;
50757;SDS011;36732;47.980;11.652;2023-03-14T04:53:05;0.43;;;0.20;;
50757;SDS011;36732;47.980;11.652;2023-03-14T04:55:31;0.10;;;0.10;;
50757;SDS011;36732;47.980;11.652;2023-03-14T04:57:57;0.17;;;0.17;;
50757;SDS011;36732;47.980;11.652;2023-03-14T05:00:24;0.40;;;0.15;;
50757;SDS011;36732;47.980;11.652;2023-03-14T05:02:50;0.20;;;0.20;;
50757;SDS011;36732;47.980;11.652;2023-03-14T05:05:16;0.10;;;0.10;;
50757;SDS011;36732;47.980;11.652;2023-03-14T05:07:42;0.10;;;0.10;;
50757;SDS011;36732;47.980;11.652;2023-03-14T05:10:08;0.15;;;0.10;;
50757;SDS011;36732;47.980;11.652;2023-03-14T05:12:34;0.10;;;0.10;;
50757;SDS011;36732;47.980;11.652;2023-03-14T05:15:00;0.10;;;0.10;;
50757;SDS011;36732;47.980;11.652;2023-03-14T05:17:26;0.20;;;0.20;;
50757;SDS011;36732;47.980;11.652;2023-03-14T05:19:51;0.20;;;0.20;;
50757;SDS011;36732;47.980;11.652;2023-03-14T05:22:17;0.10;;;0.10;;
50757;SDS011;36732;47.980;11.652;2023-03-14T05:24:43;0.20;;;0.20;;
50757;SDS011;36732;47.980;11.652;2023-03-14T05:27:09;2.65;;;0.15;;
50757;SDS011;36732;47.980;11.652;2023-03-14T05:29:35;0.25;;;0.10;;
50757;SDS011;36732;47.980;11.652;2023-03-14T05:32:00;0.20;;;0.10;;
50757;SDS011;36732;47.980;11.652;2023-03-14T05:34:26;0.10;;;0.10;;
50757;SDS011;36732;47.980;11.652;2023-03-14T05:36:52;0.15;;;0.10;;
50757;SDS011;36732;47.980;11.652;2023-03-14T05:39:17;0.10;;;0.10;;
50757;SDS011;36732;47.980;11.652;2023-03-14T05:41:43;0.10;;;0.10;;
50757;SDS011;36732;47.980;11.652;2023-03-14T05:44:09;0.10;;;0.10;;
50757;SDS011;36732;47.980;11.652;2023-03-14T05:46:35;1.33;;;0.52;;
50757;SDS011;36732;47.980;11.652;2023-03-14T05:49:00;0.80;;;0.40;;
50757;SDS011;36732;47.980;11.652;2023-03-14T05:51:26;0.20;;;0.20;;
50757;SDS011;36732;47.980;11.652;2023-03-14T05:53:52;1.08;;;0.20;;
50757;SDS011;36732;47.980;11.652;2023-03-14T05:56:17;0.40;;;0.40;;
50757;SDS011;36732;47.980;11.652;2023-03-14T05:58:43;0.52;;;0.30;;
50757;SDS011;36732;47.980;11.652;2023-03-14T06:01:09;0.17;;;0.17;;
50757;SDS011;36732;47.980;11.652;2023-03-14T06:03:35;0.40;;;0.30;;
50757;SDS011;36732;47.980;11.652;2023-03-14T06:06:01;0.50;;;0.50;;
50757;SDS011;36732;47.980;11.652;2023-03-14T06:08:27;0.70;;;0.70;;
50757;SDS011;36732;47.980;11.652;2023-03-14T06:10:53;0.50;;;0.50;;
50757;SDS011;36732;47.980;11.652;2023-03-14T06:13:19;0.73;;;0.40;;
50757;SDS011;36732;47.980;11.652;2023-03-14T06:15:45;0.35;;;0.35;;
50757;SDS011;36732;47.980;11.652;2023-03-14T06:18:11;0.50;;;0.50;;
50757;SDS011;36732;47.980;11.652;2023-03-14T06:20:39;0.45;;;0.45;;
50757;SDS011;36732;47.980;11.652;2023-03-14T06:23:05;2.33;;;1.60;;
50757;SDS011;36732;47.980;11.652;2023-03-14T06:25:32;1.05;;;0.80;;
50757;SDS011;36732;47.980;11.652;2023-03-14T06:27:59;1.25;;;1.13;;
50757;SDS011;36732;47.980;11.652;2023-03-14T06:30:24;0.80;;;0.70;;
50757;SDS011;36732;47.980;11.652;2023-03-14T06:32:50;0.70;;;0.70;;
50757;SDS011;36732;47.980;11.652;2023-03-14T06:35:16;1.63;;;0.73;;
50757;SDS011;36732;47.980;11.652;2023-03-14T06:37:42;2.13;;;1.27;;
50757;SDS011;36732;47.980;11.652;2023-03-14T06:40:11;1.52;;;0.90;;
50757;SDS011;36732;47.980;11.652;2023-03-14T06:42:43;1.83;;;0.82;;
50757;SDS011;36732;47.980;11.652;2023-03-14T06:45:10;1.00;;;0.90;;
50757;SDS011;36732;47.980;11.652;2023-03-14T06:47:36;0.60;;;0.60;;
50757;SDS011;36732;47.980;11.652;2023-03-14T06:50:03;0.43;;;0.40;;
50757;SDS011;36732;47.980;11.652;2023-03-14T06:52:30;0.40;;;0.40;;
50757;SDS011;36732;47.980;11.652;2023-03-14T06:54:56;0.45;;;0.45;;
50757;SDS011;36732;47.980;11.652;2023-03-14T06:57:22;0.95;;;0.68;;
50757;SDS011;36732;47.980;11.652;2023-03-14T06:59:47;1.00;;;0.98;;
50757;SDS011;36732;47.980;11.652;2023-03-14T07:02:13;3.15;;;1.80;;
50757;SDS011;36732;47.980;11.652;2023-03-14T07:04:39;5.68;;;2.97;;
50757;SDS011;36732;47.980;11.652;2023-03-14T07:07:05;6.40;;;4.53;;
50757;SDS011;36732;47.980;11.652;2023-03-14T07:09:31;5.25;;;3.83;;
50757;SDS011;36732;47.980;11.652;2023-03-14T07:11:57;5.03;;;3.95;;
50757;SDS011;36732;47.980;11.652;2023-03-14T07:14:23;6.47;;;3.45;;
50757;SDS011;36732;47.980;11.652;2023-03-14T07:16:49;3.40;;;2.40;;
50757;SDS011;36732;47.980;11.652;2023-03-14T07:19:15;2.88;;;2.15;;
50757;SDS011;36732;47.980;11.652;2023-03-14T07:21:41;2.25;;;1.60;;
50757;SDS011;36732;47.980;11.652;2023-03-14T07:24:06;0.80;;;0.80;;
50757;SDS011;36732;47.980;11.652;2023-03-14T07:26:32;0.80;;;0.70;;
50757;SDS011;36732;47.980;11.652;2023-03-14T07:28:58;0.52;;;0.30;;
50757;SDS011;36732;47.980;11.652;2023-03-14T07:31:24;0.20;;;0.20;;
50757;SDS011;36732;47.980;11.652;2023-03-14T07:33:50;0.40;;;0.20;;
50757;SDS011;36732;47.980;11.652;2023-03-14T07:36:16;0.10;;;0.10;;
50757;SDS011;36732;47.980;11.652;2023-03-14T07:38:42;0.30;;;0.20;;
50757;SDS011;36732;47.980;11.652;2023-03-14T07:41:07;0.10;;;0.10;;
50757;SDS011;36732;47.980;11.652;2023-03-14T07:43:33;0.13;;;0.13;;
50757;SDS011;36732;47.980;11.652;2023-03-14T07:45:59;0.30;;;0.20;;
50757;SDS011;36732;47.980;11.652;2023-03-14T07:48:25;0.28;;;0.20;;
50757;SDS011;36732;47.980;11.652;2023-03-14T07:50:51;0.13;;;0.13;;
50757;SDS011;36732;47.980;11.652;2023-03-14T07:53:19;0.10;;;0.10;;
50757;SDS011;36732;47.980;11.652;2023-03-14T07:55:46;0.30;;;0.30;;
50757;SDS011;36732;47.980;11.652;2023-03-14T07:58:12;0.57;;;0.55;;
50757;SDS011;36732;47.980;11.652;2023-03-14T08:00:38;0.32;;;0.32;;
50757;SDS011;36732;47.980;11.652;2023-03-14T08:03:04;0.85;;;0.50;;
50757;SDS011;36732;47.980;11.652;2023-03-14T08:05:30;0.88;;;0.88;;
50757;SDS011;36732;47.980;11.652;2023-03-14T08:07:55;1.10;;;0.90;;
50757;SDS011;36732;47.980;11.652;2023-03-14T08:10:21;1.25;;;0.70;;
50757;SDS011;36732;47.980;11.652;2023-03-14T08:12:48;0.88;;;0.73;;
50757;SDS011;36732;47.980;11.652;2023-03-14T08:15:22;1.75;;;0.70;;
50757;SDS011;36732;47.980;11.652;2023-03-14T08:17:49;0.82;;;0.50;;
50757;SDS011;36732;47.980;11.652;2023-03-14T08:20:19;0.47;;;0.47;;
50757;SDS011;36732;47.980;11.652;2023-03-14T08:22:50;1.15;;;0.60;;
50757;SDS011;36732;47.980;11.652;2023-03-14T08:25:16;0.60;;;0.60;;
50757;SDS011;36732;47.980;11.652;2023-03-14T08:27:42;1.40;;;0.57;;
50757;SDS011;36732;47.980;11.652;2023-03-14T08:30:10;0.98;;;0.60;;
50757;SDS011;36732;47.980;11.652;2023-03-14T08:32:39;1.02;;;0.70;;
50757;SDS011;36732;47.980;11.652;2023-03-14T08:35:05;2.28;;;0.82;;
50757;SDS011;36732;47.980;11.652;2023-03-14T08:37:32;0.80;;;0.80;;
50757;SDS011;36732;47.980;11.652;2023-03-14T08:39:59;0.70;;;0.60;;
50757;SDS011;36732;47.980;11.652;2023-03-14T08:42:25;0.40;;;0.40;;
50757;SDS011;36732;47.980;11.652;2023-03-14T08:44:51;0.60;;;0.45;;
50757;SDS011;36732;47.980;11.652;2023-03-14T08:47:18;0.55;;;0.30;;
50757;SDS011;36732;47.980;11.652;2023-03-14T08:49:44;0.50;;;0.50;;
50757;SDS011;36732;47.980;11.652;2023-03-14T08:52:10;2.28;;;0.30;;
50757;SDS011;36732;47.980;11.652;2023-03-14T08:54:35;0.57;;;0.30;;
50757;SDS011;36732;47.980;11.652;2023-03-14T08:57:01;0.40;;;0.40;;
50757;SDS011;36732;47.980;11.652;2023-03-14T08:59:27;0.30;;;0.30;;
50757;SDS011;36732;47.980;11.652;2023-03-14T09:01:52;0.30;;;0.30;;
50757;SDS011;36732;47.980;11.652;2023-03-14T09:04:19;0.60;;;0.50;;
50757;SDS011;36732;47.980;11.652;2023-03-14T09:06:45;0.30;;;0.30;;
50757;SDS011;36732;47.980;11.652;2023-03-14T09:09:11;0.45;;;0.40;;
50757;SDS011;36732;47.980;11.652;2023-03-14T09:11:38;0.30;;;0.30;;
50757;SDS011;36732;47.980;11.652;2023-03-14T09:14:04;0.50;;;0.50;;
50757;SDS011;36732;47.980;11.652;2023-03-14T09:16:30;0.90;;;0.52;;
50757;SDS011;36732;47.980;11.652;2023-03-14T09:18:56;0.80;;;0.80;;
50757;SDS011;36732;47.980;11.652;2023-03-14T09:21:24;1.38;;;0.90;;
50757;SDS011;36732;47.980;11.652;2023-03-14T09:23:52;2.28;;;0.82;;
50757;SDS011;36732;47.980;11.652;2023-03-14T09:26:17;0.70;;;0.70;;
50757;SDS011;36732;47.980;11.652;2023-03-14T09:28:43;2.13;;;0.50;;
50757;SDS011;36732;47.980;11.652;2023-03-14T09:31:09;0.82;;;0.47;;
50757;SDS011;36732;47.980;11.652;2023-03-14T09:33:37;0.60;;;0.50;;
50757;SDS011;36732;47.980;11.652;2023-03-14T09:36:03;0.85;;;0.40;;
50757;SDS011;36732;47.980;11.652;2023-03-14T09:38:30;0.45;;;0.45;;
50757;SDS011;36732;47.980;11.652;2023-03-14T09:40:58;0.88;;;0.60;;
50757;SDS011;36732;47.980;11.652;2023-03-14T09:43:27;0.98;;;0.88;;
50757;SDS011;36732;47.980;11.652;2023-03-14T09:45:57;1.15;;;0.90;;
50757;SDS011;36732;47.980;11.652;2023-03-14T09:48:29;1.08;;;0.85;;
50757;SDS011;36732;47.980;11.652;2023-03-14T09:50:58;1.10;;;1.00;;
50757;SDS011;36732;47.980;11.652;2023-03-14T09:53:45;1.27;;;0.90;;
50757;SDS011;36732;47.980;11.652;2023-03-14T09:56:14;1.00;;;0.77;;
50757;SDS011;36732;47.980;11.652;2023-03-14T09:58:44;0.70;;;0.60;;
50757;SDS011;36732;47.980;11.652;2023-03-14T10:01:16;0.93;;;0.80;;
50757;SDS011;36732;47.980;11.652;2023-03-14T10:03:50;1.50;;;1.10;;
50757;SDS011;36732;47.980;11.652;2023-03-14T10:06:22;1.40;;;1.05;;
50757;SDS011;36732;47.980;11.652;2023-03-14T10:08:52;1.33;;;1.10;;
50757;SDS011;36732;47.980;11.652;2023-03-14T10:11:20;1.88;;;1.10;;
50757;SDS011;36732;47.980;11.652;2023-03-14T10:13:47;2.13;;;1.10;;
50757;SDS011;36732;47.980;11.652;2023-03-14T10:16:28;1.23;;;0.82;;
50757;SDS011;36732;47.980;11.652;2023-03-14T10:19:01;1.73;;;0.63;;
50757;SDS011;36732;47.980;11.652;2023-03-14T10:21:30;1.20;;;0.70;;
50757;SDS011;36732;47.980;11.652;2023-03-14T10:24:10;0.63;;;0.60;;
50757;SDS011;36732;47.980;11.652;2023-03-14T10:29:19;0.40;;;0.40;;
50757;SDS011;36732;47.980;11.652;2023-03-14T10:31:53;0.50;;;0.43;;
50757;SDS011;36732;47.980;11.652;2023-03-14T10:34:31;0.47;;;0.47;;
50757;SDS011;36732;47.980;11.652;2023-03-14T10:37:06;0.60;;;0.50;;
50757;SDS011;36732;47.980;11.652;2023-03-14T10:39:52;2.13;;;0.60;;
50757;SDS011;36732;47.980;11.652;2023-03-14T10:42:25;0.40;;;0.40;;
50757;SDS011;36732;47.980;11.652;2023-03-14T10:44:55;0.45;;;0.40;;
50757;SDS011;36732;47.980;11.652;2023-03-14T10:47:47;0.28;;;0.28;;
50757;SDS011;36732;47.980;11.652;2023-03-14T10:50:25;0.32;;;0.30;;
50757;SDS011;36732;47.980;11.652;2023-03-14T10:52:56;0.50;;;0.30;;
50757;SDS011;36732;47.980;11.652;2023-03-14T10:55:39;0.25;;;0.25;;
50757;SDS011;36732;47.980;11.652;2023-03-14T10:58:26;0.30;;;0.30;;
50757;SDS011;36732;47.980;11.652;2023-03-14T11:03:29;0.38;;;0.25;;
50757;SDS011;36732;47.980;11.652;2023-03-14T11:06:05;0.52;;;0.30;;
50757;SDS011;36732;47.980;11.652;2023-03-14T11:08:55;0.30;;;0.30;;
50757;SDS011;36732;47.980;11.652;2023-03-14T11:11:30;0.40;;;0.30;;
50757;SDS011;36732;47.980;11.652;2023-03-14T11:19:42;0.30;;;0.30;;
50757;SDS011;36732;47.980;11.652;2023-03-14T11:25:12;0.40;;;0.20;;
50757;SDS011;36732;47.980;11.652;2023-03-14T11:27:48;0.50;;;0.40;;
50757;SDS011;36732;47.980;11.652;2023-03-14T11:30:47;1.50;;;0.47;;
50757;SDS011;36732;47.980;11.652;2023-03-14T11:33:35;0.50;;;0.50;;
50757;SDS011;36732;47.980;11.652;2023-03-14T11:36:06;0.95;;;0.68;;
50757;SDS011;36732;47.980;11.652;2023-03-14T11:41:22;2.53;;;0.47;;
50757;SDS011;36732;47.980;11.652;2023-03-14T11:43:58;1.15;;;0.30;;
50757;SDS011;36732;47.980;11.652;2023-03-14T11:49:33;0.10;;;0.10;;
50757;SDS011;36732;47.980;11.652;2023-03-14T11:52:16;0.40;;;0.20;;
50757;SDS011;36732;47.980;11.652;2023-03-14T11:55:18;0.20;;;0.20;;
50757;SDS011;36732;47.980;11.652;2023-03-14T11:57:51;1.05;;;0.40;;
50757;SDS011;36732;47.980;11.652;2023-03-14T12:00:22;0.20;;;0.20;;
50757;SDS011;36732;47.980;11.652;2023-03-14T12:05:50;1.50;;;0.40;;
50757;SDS011;36732;47.980;11.652;2023-03-14T12:09:02;0.22;;;0.22;;
50757;SDS011;36732;47.980;11.652;2023-03-14T12:11:33;0.20;;;0.20;;
50757;SDS011;36732;47.980;11.652;2023-03-14T12:14:27;0.38;;;0.30;;
50757;SDS011;36732;47.980;11.652;2023-03-14T12:17:17;1.27;;;0.20;;
50757;SDS011;36732;47.980;11.652;2023-03-14T12:19:43;0.10;;;0.10;;
50757;SDS011;36732;47.980;11.652;2023-03-14T12:25:02;0.20;;;0.20;;
50757;SDS011;36732;47.980;11.652;2023-03-14T12:27:48;0.30;;;0.25;;
50757;SDS011;36732;47.980;11.652;2023-03-14T12:30:30;0.30;;;0.30;;
50757;SDS011;36732;47.980;11.652;2023-03-14T12:35:43;0.10;;;0.10;;
50757;SDS011;36732;47.980;11.652;2023-03-14T12:39:00;0.20;;;0.20;;
50757;SDS011;36732;47.980;11.652;2023-03-14T12:41:20;0.20;;;0.20;;
50757;SDS011;36732;47.980;11.652;2023-03-14T12:44:29;1.58;;;0.20;;
50757;SDS011;36732;47.980;11.652;2023-03-14T12:46:54;0.40;;;0.30;;
50757;SDS011;36732;47.980;11.652;2023-03-14T12:49:31;0.20;;;0.20;;
50757;SDS011;36732;47.980;11.652;2023-03-14T12:52:02;0.28;;;0.28;;
50757;SDS011;36732;47.980;11.652;2023-03-14T13:00:16;0.77;;;0.22;;
50757;SDS011;36732;47.980;11.652;2023-03-14T13:05:54;0.20;;;0.20;;
50757;SDS011;36732;47.980;11.652;2023-03-14T13:08:58;0.85;;;0.20;;
50757;SDS011;36732;47.980;11.652;2023-03-14T13:11:21;0.10;;;0.10;;
50757;SDS011;36732;47.980;11.652;2023-03-14T13:13:49;0.50;;;0.20;;
50757;SDS011;36732;47.980;11.652;2023-03-14T13:16:22;0.22;;;0.22;;
50757;SDS011;36732;47.980;11.652;2023-03-14T13:18:49;1.13;;;0.25;;
50757;SDS011;36732;47.980;11.652;2023-03-14T13:21:25;0.10;;;0.10;;
50757;SDS011;36732;47.980;11.652;2023-03-14T13:23:54;0.28;;;0.20;;
50757;SDS011;36732;47.980;11.652;2023-03-14T13:29:23;0.20;;;0.20;;
50757;SDS011;36732;47.980;11.652;2023-03-14T13:31:55;0.10;;;0.10;;
50757;SDS011;36732;47.980;11.652;2023-03-14T13:34:32;0.20;;;0.10;;
50757;SDS011;36732;47.980;11.652;2023-03-14T13:36:59;0.10;;;0.10;;
50757;SDS011;36732;47.980;11.652;2023-03-14T13:39:27;0.10;;;0.10;;
50757;SDS011;36732;47.980;11.652;2023-03-14T13:41:55;0.10;;;0.10;;
50757;SDS011;36732;47.980;11.652;2023-03-14T13:44:27;0.05;;;0.05;;
50757;SDS011;36732;47.980;11.652;2023-03-14T13:46:58;0.20;;;0.20;;
50757;SDS011;36732;47.980;11.652;2023-03-14T13:49:26;0.10;;;0.10;;
50757;SDS011;36732;47.980;11.652;2023-03-14T13:51:56;0.10;;;0.10;;
50757;SDS011;36732;47.980;11.652;2023-03-14T13:54:22;0.10;;;0.10;;
50757;SDS011;36732;47.980;11.652;2023-03-14T13:56:58;0.10;;;0.10;;
50757;SDS011;36732;47.980;11.652;2023-03-14T13:59:30;0.25;;;0.25;;
50757;SDS011;36732;47.980;11.652;2023-03-14T14:01:59;1.35;;;0.10;;
50757;SDS011;36732;47.980;11.652;2023-03-14T14:04:32;0.22;;;0.20;;
50757;SDS011;36732;47.980;11.652;2023-03-14T14:07:00;0.20;;;0.10;;
50757;SDS011;36732;47.980;11.652;2023-03-14T14:09:36;0.10;;;0.10;;
50757;SDS011;36732;47.980;11.652;2023-03-14T14:12:10;0.20;;;0.20;;
50757;SDS011;36732;47.980;11.652;2023-03-14T14:14:43;0.10;;;0.10;;
50757;SDS011;36732;47.980;11.652;2023-03-14T14:17:15;0.10;;;0.10;;
50757;SDS011;36732;47.980;11.652;2023-03-14T14:19:46;0.20;;;0.10;;
50757;SDS011;36732;47.980;11.652;2023-03-14T14:22:13;0.10;;;0.10;;
50757;SDS011;36732;47.980;11.652;2023-03-14T14:24:39;0.38;;;0.22;;
50757;SDS011;36732;47.980;11.652;2023-03-14T14:29:40;2.50;;;0.30;;
50757;SDS011;36732;47.980;11.652;2023-03-14T14:34:40;0.73;;;0.20;;
50757;SDS011;36732;47.980;11.652;2023-03-14T14:39:48;0.73;;;0.20;;
50757;SDS011;36732;47.980;11.652;2023-03-14T14:42:17;0.10;;;0.10;;
50757;SDS011;36732;47.980;11.652;2023-03-14T14:44:49;0.10;;;0.10;;
50757;SDS011;36732;47.980;11.652;2023-03-14T14:47:18;0.30;;;0.15;;
50757;SDS011;36732;47.980;11.652;2023-03-14T14:49:48;0.30;;;0.30;;
50757;SDS011;36732;47.980;11.652;2023-03-14T14:52:20;0.30;;;0.20;;
50757;SDS011;36732;47.980;11.652;2023-03-14T14:54:59;0.20;;;0.17;;
50757;SDS011;36732;47.980;11.652;2023-03-14T14:57:27;0.10;;;0.10;;
50757;SDS011;36732;47.980;11.652;2023-03-14T15:00:02;0.10;;;0.10;;
50757;SDS011;36732;47.980;11.652;2023-03-14T15:02:44;0.30;;;0.10;;
50757;SDS011;36732;47.980;11.652;2023-03-14T15:05:13;0.10;;;0.10;;
50757;SDS011;36732;47.980;11.652;2023-03-14T15:07:42;0.20;;;0.20;;
50757;SDS011;36732;47.980;11.652;2023-03-14T15:10:16;0.38;;;0.10;;
50757;SDS011;36732;47.980;11.652;2023-03-14T15:12:47;0.10;;;0.10;;
50757;SDS011;36732;47.980;11.652;2023-03-14T15:15:13;0.43;;;0.25;;
50757;SDS011;36732;47.980;11.652;2023-03-14T15:17:40;0.10;;;0.10;;
50757;SDS011;36732;47.980;11.652;2023-03-14T15:20:09;0.10;;;0.10;;
50757;SDS011;36732;47.980;11.652;2023-03-14T15:22:39;0.13;;;0.10;;
50757;SDS011;36732;47.980;11.652;2023-03-14T15:25:05;0.10;;;0.10;;
50757;SDS011;36732;47.980;11.652;2023-03-14T15:27:32;0.13;;;0.13;;
50757;SDS011;36732;47.980;11.652;2023-03-14T15:29:58;0.20;;;0.20;;
50757;SDS011;36732;47.980;11.652;2023-03-14T15:32:25;0.20;;;0.13;;
50757;SDS011;36732;47.980;11.652;2023-03-14T15:34:55;0.10;;;0.10;;
50757;SDS011;36732;47.980;11.652;2023-03-14T15:37:21;0.70;;;0.22;;
50757;SDS011;36732;47.980;11.652;2023-03-14T15:39:47;1.27;;;0.30;;
50757;SDS011;36732;47.980;11.652;2023-03-14T15:42:14;0.17;;;0.17;;
50757;SDS011;36732;47.980;11.652;2023-03-14T15:44:39;0.47;;;0.20;;
50757;SDS011;36732;47.980;11.652;2023-03-14T15:47:05;0.32;;;0.20;;